Time;durP1;ratioP1;P1;durP2;ratioP2;P2;SDS_P1;SDS_P2;PMS_P1;PMS_P2;Temp;Humidity;BMP_temperature;BMP_pressure;BME280_temperature;BME280_humidity;BME280_pressure;Samples;Min_cycle;Max_cycle;Signal;HPM_P1;HPM_P2
2023/03/28 00:01:01;;;;;;;2.00;0.55;;;13.70;96.70;;;;;;5007536;28;20046;-74
2023/03/28 00:03:41;;;;;;;1.10;0.50;;;13.70;96.70;;;;;;4993332;28;20052;-73
2023/03/28 00:06:11;;;;;;;1.05;0.60;;;13.70;96.70;;;;;;4998844;28;20097;-73
2023/03/28 00:08:40;;;;;;;2.10;0.43;;;13.70;96.70;;;;;;4990208;28;20136;-73
2023/03/28 00:11:18;;;;;;;1.38;0.55;;;13.70;96.70;;;;;;4992678;28;20088;-74
2023/03/28 00:13:52;;;;;;;1.73;0.50;;;13.70;96.70;;;;;;4995996;28;20049;-75
2023/03/28 00:16:20;;;;;;;1.15;0.55;;;13.60;96.70;;;;;;5011612;28;20061;-73
2023/03/28 00:18:51;;;;;;;2.90;0.73;;;13.60;96.70;;;;;;4988635;28;20061;-74
2023/03/28 00:21:22;;;;;;;0.57;0.43;;;13.60;96.70;;;;;;4994963;28;20060;-73
2023/03/28 00:24:00;;;;;;;0.80;0.40;;;13.50;96.70;;;;;;4998185;28;20052;-73
2023/03/28 00:26:31;;;;;;;1.17;0.30;;;13.50;96.70;;;;;;4992454;28;20046;-73
2023/03/28 00:29:00;;;;;;;2.20;0.47;;;13.50;96.70;;;;;;5010524;28;20037;-74
2023/03/28 00:31:29;;;;;;;0.68;0.45;;;13.50;96.70;;;;;;4979386;28;20038;-74
2023/03/28 00:33:59;;;;;;;1.65;0.50;;;13.40;96.70;;;;;;5013742;28;20685;-74
2023/03/28 00:36:31;;;;;;;1.25;0.50;;;13.40;96.70;;;;;;4991778;28;20046;-74
2023/03/28 00:39:00;;;;;;;1.17;0.50;;;13.40;96.70;;;;;;4993380;28;20046;-74
2023/03/28 00:41:32;;;;;;;0.60;0.32;;;13.30;96.70;;;;;;4978083;28;20365;-73
2023/03/28 00:44:21;;;;;;;1.13;0.68;;;13.30;96.70;;;;;;4999454;28;20557;-73
2023/03/28 00:46:50;;;;;;;0.60;0.30;;;13.30;96.70;;;;;;5013453;28;20054;-74
2023/03/28 00:49:23;;;;;;;0.77;0.40;;;13.30;96.70;;;;;;5010510;28;20042;-73
2023/03/28 00:51:56;;;;;;;1.15;0.50;;;13.30;96.70;;;;;;4979649;28;20064;-74
2023/03/28 00:54:27;;;;;;;0.60;0.50;;;13.30;96.70;;;;;;4998573;28;20136;-73
2023/03/28 00:56:59;;;;;;;1.52;0.50;;;13.30;96.70;;;;;;5010932;28;20061;-73
2023/03/28 00:59:30;;;;;;;1.65;0.50;;;13.30;96.30;;;;;;4994692;28;20082;-73
2023/03/28 01:01:59;;;;;;;0.95;0.40;;;13.20;96.60;;;;;;5009546;28;20500;-74
2023/03/28 01:04:35;;;;;;;1.00;0.40;;;13.30;96.00;;;;;;5009969;28;20049;-73
2023/03/28 01:07:05;;;;;;;0.50;0.40;;;13.30;95.40;;;;;;4995649;28;20566;-74
2023/03/28 01:09:37;;;;;;;0.75;0.40;;;13.30;95.20;;;;;;4979335;28;20488;-73
2023/03/28 01:12:06;;;;;;;0.95;0.45;;;13.30;95.30;;;;;;4991940;28;20091;-73
2023/03/28 01:14:36;;;;;;;0.70;0.40;;;13.30;95.20;;;;;;4995721;28;20054;-73
2023/03/28 01:17:06;;;;;;;1.17;0.40;;;13.30;95.40;;;;;;4993846;28;20041;-73
2023/03/28 01:19:57;;;;;;;1.08;0.40;;;13.20;96.10;;;;;;4987316;28;20566;-73
2023/03/28 01:23:05;;;;;;;0.70;0.50;;;13.20;96.20;;;;;;4982477;28;20539;-73
2023/03/28 01:25:58;;;;;;;0.63;0.32;;;13.20;96.70;;;;;;5002539;28;20053;-73
2023/03/28 01:28:47;;;;;;;1.13;0.35;;;13.30;96.70;;;;;;4977952;28;20057;-73
2023/03/28 01:31:42;;;;;;;0.68;0.40;;;13.20;96.70;;;;;;4992639;28;20411;-74
2023/03/28 01:35:04;;;;;;;0.65;0.30;;;13.30;96.70;;;;;;5008169;28;20061;-73
2023/03/28 01:37:40;;;;;;;0.45;0.25;;;13.20;96.70;;;;;;4985467;28;20050;-73
2023/03/28 01:40:25;;;;;;;0.40;0.30;;;13.10;96.70;;;;;;4994441;28;20045;-73
2023/03/28 01:43:19;;;;;;;1.67;0.40;;;13.10;96.70;;;;;;4997673;28;20582;-73
2023/03/28 01:45:57;;;;;;;0.93;0.40;;;13.10;96.70;;;;;;5010780;28;20052;-73
2023/03/28 01:48:40;;;;;;;0.55;0.40;;;13.10;96.70;;;;;;4985825;28;20053;-73
2023/03/28 01:51:15;;;;;;;0.70;0.40;;;13.10;96.70;;;;;;4982096;28;20515;-74
2023/03/28 01:53:52;;;;;;;1.23;0.50;;;13.10;96.70;;;;;;4994726;28;20510;-73
2023/03/28 01:56:29;;;;;;;0.88;0.52;;;13.10;96.70;;;;;;4994293;28;20071;-73
2023/03/28 01:59:12;;;;;;;0.73;0.55;;;13.10;96.70;;;;;;4994152;28;20768;-73
2023/03/28 02:02:06;;;;;;;1.77;0.57;;;12.90;96.70;;;;;;5012795;28;20060;-73
2023/03/28 02:04:37;;;;;;;0.95;0.43;;;12.80;96.70;;;;;;5004410;28;20077;-73
2023/03/28 02:07:07;;;;;;;0.80;0.40;;;12.80;96.70;;;;;;5002877;28;20127;-73
2023/03/28 02:09:57;;;;;;;1.02;0.50;;;12.80;96.70;;;;;;5008651;28;20038;-74
2023/03/28 02:12:50;;;;;;;0.93;0.40;;;12.80;96.70;;;;;;4987672;28;20537;-73
2023/03/28 02:15:40;;;;;;;1.02;0.30;;;12.80;96.70;;;;;;4997301;28;20207;-73
2023/03/28 02:18:40;;;;;;;1.77;0.50;;;12.80;96.70;;;;;;5002613;28;20075;-73
2023/03/28 02:21:38;;;;;;;1.40;0.50;;;12.80;96.70;;;;;;5000282;28;20406;-73
2023/03/28 02:24:31;;;;;;;0.70;0.60;;;12.80;96.70;;;;;;4991899;28;20517;-73
2023/03/28 02:27:36;;;;;;;0.73;0.35;;;12.70;96.70;;;;;;4963390;28;20351;-73
2023/03/28 02:30:12;;;;;;;0.63;0.30;;;12.60;96.70;;;;;;4993690;28;20050;-73
2023/03/28 02:32:49;;;;;;;0.55;0.30;;;12.60;96.70;;;;;;4987418;28;20049;-76
2023/03/28 02:35:25;;;;;;;0.73;0.40;;;12.70;96.70;;;;;;4995003;28;20145;-74
2023/03/28 02:38:02;;;;;;;0.63;0.40;;;12.60;96.70;;;;;;5009358;28;20052;-74
2023/03/28 02:40:46;;;;;;;0.98;0.50;;;12.60;96.70;;;;;;5011367;28;20109;-74
2023/03/28 02:43:44;;;;;;;2.00;0.60;;;12.60;96.70;;;;;;4980012;28;20176;-74
2023/03/28 02:46:19;;;;;;;1.08;0.50;;;12.70;96.70;;;;;;4987171;28;20049;-74
2023/03/28 02:49:13;;;;;;;2.20;0.47;;;12.60;96.70;;;;;;4999344;28;20054;-74
2023/03/28 02:51:47;;;;;;;0.80;0.30;;;12.50;96.70;;;;;;4993579;28;20100;-75
2023/03/28 02:54:26;;;;;;;1.27;0.50;;;12.50;96.70;;;;;;4998180;28;20119;-73
2023/03/28 02:57:28;;;;;;;0.88;0.40;;;12.50;96.70;;;;;;4987968;28;20907;-73
2023/03/28 03:00:04;;;;;;;0.95;0.45;;;12.20;96.70;;;;;;4994597;28;20571;-74
2023/03/28 03:02:32;;;;;;;0.90;0.50;;;12.10;96.70;;;;;;4990243;28;20058;-74
2023/03/28 03:05:00;;;;;;;0.82;0.20;;;12.10;96.70;;;;;;4990965;28;20133;-74
2023/03/28 03:07:29;;;;;;;0.70;0.30;;;12.10;96.70;;;;;;4995393;28;20106;-74
2023/03/28 03:09:57;;;;;;;1.33;0.40;;;12.10;96.70;;;;;;4989690;28;20030;-74
2023/03/28 03:12:25;;;;;;;2.28;0.55;;;12.10;96.70;;;;;;4991852;28;20069;-74
2023/03/28 03:14:59;;;;;;;0.88;0.45;;;12.00;96.70;;;;;;4985733;28;20058;-74
2023/03/28 03:17:47;;;;;;;1.13;0.70;;;12.10;96.70;;;;;;4981084;28;20064;-74
2023/03/28 03:20:22;;;;;;;0.70;0.40;;;12.00;96.70;;;;;;4987791;28;20039;-74
2023/03/28 03:22:50;;;;;;;1.73;0.60;;;11.80;96.70;;;;;;4970955;28;20418;-74
2023/03/28 03:25:18;;;;;;;1.30;0.45;;;11.90;96.70;;;;;;4990643;28;20049;-74
2023/03/28 03:28:07;;;;;;;3.22;0.68;;;11.80;96.70;;;;;;4988767;28;20150;-74
2023/03/28 03:30:36;;;;;;;1.58;0.68;;;11.80;96.70;;;;;;4986402;28;20129;-74
2023/03/28 03:33:21;;;;;;;1.23;0.50;;;11.70;96.70;;;;;;4991972;28;20056;-74
2023/03/28 03:35:54;;;;;;;1.48;0.50;;;11.70;96.70;;;;;;4990497;28;20470;-74
2023/03/28 03:38:22;;;;;;;0.85;0.47;;;11.70;96.70;;;;;;4988447;28;20511;-74
2023/03/28 03:40:51;;;;;;;1.00;0.40;;;11.70;96.70;;;;;;4989614;28;20108;-74
2023/03/28 03:43:19;;;;;;;1.42;0.50;;;11.70;96.70;;;;;;4992494;28;20073;-74
2023/03/28 03:45:48;;;;;;;1.73;0.45;;;11.70;96.70;;;;;;4988001;28;20141;-73
2023/03/28 03:48:16;;;;;;;1.65;0.57;;;11.70;96.70;;;;;;4989105;28;20172;-74
2023/03/28 03:50:44;;;;;;;2.03;0.70;;;11.70;96.70;;;;;;4991568;28;20044;-75
2023/03/28 03:53:15;;;;;;;0.80;0.32;;;11.60;96.70;;;;;;4990194;28;20042;-74
2023/03/28 03:55:49;;;;;;;2.00;0.65;;;11.60;96.70;;;;;;4974051;28;20046;-74
2023/03/28 03:58:18;;;;;;;0.70;0.50;;;11.70;96.70;;;;;;5001788;28;20046;-73
2023/03/28 04:00:50;;;;;;;0.88;0.45;;;11.70;96.70;;;;;;4986043;28;20117;-74
2023/03/28 04:03:35;;;;;;;0.77;0.40;;;11.50;96.70;;;;;;4991649;28;20585;-74
2023/03/28 04:06:04;;;;;;;2.15;0.47;;;11.30;96.70;;;;;;4993111;28;20058;-74
2023/03/28 04:08:33;;;;;;;2.35;0.40;;;11.30;96.70;;;;;;4989821;28;20129;-74
2023/03/28 04:11:06;;;;;;;1.33;0.70;;;11.30;96.70;;;;;;4988527;28;20045;-73
2023/03/28 04:13:38;;;;;;;1.55;0.60;;;11.30;96.70;;;;;;5006665;28;20068;-74
2023/03/28 04:16:10;;;;;;;1.10;0.40;;;11.30;96.70;;;;;;4991718;28;20049;-73
2023/03/28 04:18:56;;;;;;;0.75;0.40;;;11.30;96.70;;;;;;4994993;28;20165;-73
2023/03/28 04:21:28;;;;;;;2.50;0.60;;;11.10;96.70;;;;;;4994332;28;20761;-73
2023/03/28 04:24:00;;;;;;;1.38;0.50;;;11.00;96.70;;;;;;4993324;28;20495;-73
2023/03/28 04:26:40;;;;;;;1.02;0.60;;;11.00;96.70;;;;;;4992169;28;20047;-73
2023/03/28 04:29:12;;;;;;;2.45;0.73;;;11.20;96.70;;;;;;4998305;28;20042;-73
2023/03/28 04:31:48;;;;;;;1.10;0.40;;;11.20;96.70;;;;;;4990606;28;20156;-74
2023/03/28 04:34:39;;;;;;;1.08;0.40;;;11.00;96.70;;;;;;4989787;28;20127;-73
2023/03/28 04:37:10;;;;;;;1.15;0.63;;;10.80;96.70;;;;;;4996968;28;20065;-74
2023/03/28 04:39:52;;;;;;;1.10;0.40;;;10.90;96.70;;;;;;4991512;28;20052;-74
2023/03/28 04:42:29;;;;;;;0.57;0.43;;;11.00;96.70;;;;;;4991949;28;20061;-73
2023/03/28 04:45:14;;;;;;;1.60;0.98;;;10.90;96.70;;;;;;4995017;28;20050;-73
2023/03/28 04:47:47;;;;;;;1.23;0.40;;;10.80;96.70;;;;;;4992423;28;20069;-73
2023/03/28 04:50:20;;;;;;;1.10;0.40;;;10.70;96.70;;;;;;4989518;28;20046;-74
2023/03/28 04:52:48;;;;;;;3.17;0.45;;;10.90;96.70;;;;;;4991607;28;20054;-74
2023/03/28 04:55:16;;;;;;;0.88;0.60;;;10.90;96.70;;;;;;4993124;28;20424;-74
2023/03/28 04:57:47;;;;;;;1.58;0.63;;;11.00;96.70;;;;;;4997549;28;20077;-73
2023/03/28 05:00:17;;;;;;;1.83;0.70;;;10.80;96.70;;;;;;4988827;28;20050;-74
2023/03/28 05:03:11;;;;;;;2.92;0.63;;;10.50;96.70;;;;;;4990457;28;20054;-74
2023/03/28 05:05:57;;;;;;;1.95;0.80;;;10.50;96.70;;;;;;4988885;28;20076;-73
2023/03/28 05:08:26;;;;;;;4.50;0.88;;;10.60;96.70;;;;;;4990075;28;20078;-73
2023/03/28 05:10:54;;;;;;;2.00;0.68;;;10.40;96.70;;;;;;4991401;28;20042;-74
2023/03/28 05:13:22;;;;;;;5.68;1.00;;;10.10;96.70;;;;;;4989859;28;20522;-73
2023/03/28 05:16:01;;;;;;;2.72;0.85;;;10.00;96.70;;;;;;4983144;28;20456;-74
2023/03/28 05:18:51;;;;;;;1.95;0.50;;;10.00;96.70;;;;;;4989979;28;20058;-73
2023/03/28 05:21:26;;;;;;;2.90;0.95;;;10.00;96.70;;;;;;4972145;28;20944;-74
2023/03/28 05:23:59;;;;;;;3.25;0.73;;;10.30;96.70;;;;;;4990338;28;20100;-73
2023/03/28 05:26:27;;;;;;;2.17;0.73;;;10.20;96.70;;;;;;4979257;28;20068;-74
2023/03/28 05:28:55;;;;;;;2.63;0.80;;;10.30;96.70;;;;;;4980517;28;20411;-74
2023/03/28 05:31:24;;;;;;;2.88;0.60;;;10.60;96.70;;;;;;4976555;28;20058;-74
2023/03/28 05:34:07;;;;;;;2.30;0.95;;;10.70;96.70;;;;;;4981087;28;20487;-74
2023/03/28 05:36:44;;;;;;;7.80;2.72;;;10.70;96.70;;;;;;4987917;28;20053;-74
2023/03/28 05:39:22;;;;;;;5.07;1.30;;;10.90;96.70;;;;;;4992894;28;20050;-73
2023/03/28 05:41:56;;;;;;;4.50;1.67;;;10.70;96.70;;;;;;4974428;28;20045;-73
2023/03/28 05:44:24;;;;;;;4.57;1.90;;;10.70;96.70;;;;;;4988722;28;20046;-73
2023/03/28 05:47:16;;;;;;;7.05;2.58;;;10.50;96.70;;;;;;4990615;28;20057;-73
2023/03/28 05:49:45;;;;;;;7.38;4.03;;;10.40;96.70;;;;;;4989752;28;20140;-74
2023/03/28 05:52:14;;;;;;;8.05;3.55;;;10.40;96.70;;;;;;4990683;28;20499;-74
2023/03/28 05:54:44;;;;;;;7.88;3.60;;;10.60;96.70;;;;;;4986976;28;20055;-73
2023/03/28 05:57:20;;;;;;;7.43;4.13;;;10.70;96.70;;;;;;4999640;28;20077;-73
2023/03/28 05:59:48;;;;;;;10.82;3.03;;;10.70;96.70;;;;;;5006063;28;20112;-74
2023/03/28 06:02:21;;;;;;;8.57;3.15;;;10.80;96.70;;;;;;4980970;28;20053;-73
2023/03/28 06:04:56;;;;;;;4.53;2.40;;;10.70;96.70;;;;;;4996267;28;20057;-73
2023/03/28 06:07:25;;;;;;;5.95;3.20;;;10.90;96.70;;;;;;4991444;28;20050;-73
2023/03/28 06:10:11;;;;;;;7.70;3.10;;;10.90;96.70;;;;;;4992185;28;20128;-73
2023/03/28 06:12:45;;;;;;;9.98;3.92;;;10.80;96.70;;;;;;4977793;28;20057;-73
2023/03/28 06:15:13;;;;;;;8.68;3.47;;;10.80;96.70;;;;;;4992103;28;20108;-74
2023/03/28 06:17:45;;;;;;;7.72;3.55;;;10.80;96.70;;;;;;5011315;28;20442;-73
2023/03/28 06:20:15;;;;;;;7.55;3.25;;;10.80;96.70;;;;;;4973524;28;20058;-73
2023/03/28 06:22:44;;;;;;;10.38;4.93;;;10.80;96.70;;;;;;4988337;28;20050;-73
2023/03/28 06:25:12;;;;;;;10.15;5.88;;;10.70;96.70;;;;;;4988877;28;20049;-73
2023/03/28 06:27:40;;;;;;;9.82;5.13;;;10.70;96.70;;;;;;4992780;28;20483;-74
2023/03/28 06:30:10;;;;;;;10.85;5.00;;;10.70;96.70;;;;;;4991659;28;20128;-73
2023/03/28 06:32:49;;;;;;;11.85;4.70;;;10.90;96.70;;;;;;4988370;28;20504;-73
2023/03/28 06:35:19;;;;;;;12.63;4.53;;;11.00;96.70;;;;;;4977293;28;20519;-73
2023/03/28 06:37:47;;;;;;;11.48;5.60;;;11.00;96.70;;;;;;4989394;28;20977;-74
2023/03/28 06:40:22;;;;;;;17.42;7.90;;;11.00;96.70;;;;;;4994429;28;20128;-73
2023/03/28 06:42:50;;;;;;;17.52;7.28;;;11.10;96.70;;;;;;4990290;28;20050;-73
2023/03/28 06:45:30;;;;;;;17.55;7.90;;;11.10;96.70;;;;;;4996166;28;20440;-74
2023/03/28 06:48:04;;;;;;;13.30;6.95;;;11.10;96.70;;;;;;4980416;28;20053;-74
2023/03/28 06:51:11;;;;;;;12.02;6.07;;;11.20;96.70;;;;;;4924854;29;20649;-74
2023/03/28 06:53:41;;;;;;;12.45;6.03;;;11.30;96.70;;;;;;4959610;28;20807;-74
2023/03/28 06:56:10;;;;;;;9.95;5.03;;;11.50;96.70;;;;;;4983824;28;20515;-74
2023/03/28 06:58:38;;;;;;;9.38;4.40;;;11.60;96.70;;;;;;5001782;28;20057;-73
2023/03/28 07:01:10;;;;;;;10.20;4.05;;;11.60;96.70;;;;;;4979757;28;20450;-73
2023/03/28 07:03:47;;;;;;;8.35;3.63;;;11.60;96.70;;;;;;4987769;28;20045;-73
2023/03/28 07:06:22;;;;;;;9.77;3.22;;;11.60;96.70;;;;;;4992289;28;20511;-72
2023/03/28 07:08:50;;;;;;;9.25;3.20;;;11.70;96.70;;;;;;4988657;28;20057;-73
2023/03/28 07:11:26;;;;;;;5.95;2.75;;;11.80;96.70;;;;;;4982982;28;20566;-73
2023/03/28 07:13:54;;;;;;;5.90;2.70;;;11.70;96.70;;;;;;4992546;28;20396;-71
2023/03/28 07:16:22;;;;;;;6.25;2.58;;;11.70;96.70;;;;;;4985593;28;20142;-71
2023/03/28 07:18:50;;;;;;;5.13;2.60;;;11.80;96.70;;;;;;4988235;28;20475;-72
2023/03/28 07:21:23;;;;;;;4.82;2.53;;;11.80;96.70;;;;;;4990873;28;20051;-71
2023/03/28 07:23:55;;;;;;;5.53;2.45;;;11.90;96.70;;;;;;4993920;28;20538;-72
2023/03/28 07:26:27;;;;;;;6.38;2.45;;;11.90;96.70;;;;;;4984899;28;20050;-71
2023/03/28 07:28:55;;;;;;;6.65;2.13;;;12.00;96.70;;;;;;4999877;28;20576;-72
2023/03/28 07:31:24;;;;;;;3.97;1.92;;;12.10;96.70;;;;;;4999513;28;20048;-72
2023/03/28 07:33:57;;;;;;;3.92;1.80;;;12.10;96.70;;;;;;4998045;28;20064;-72
2023/03/28 07:36:28;;;;;;;4.47;2.15;;;12.10;96.70;;;;;;4982664;28;20047;-73
2023/03/28 07:39:03;;;;;;;5.28;1.90;;;12.20;96.70;;;;;;4990042;28;20049;-72
2023/03/28 07:41:32;;;;;;;4.13;1.50;;;12.30;96.70;;;;;;4990970;28;20065;-72
2023/03/28 07:44:01;;;;;;;5.75;0.90;;;12.40;96.70;;;;;;4993229;28;20461;-72
2023/03/28 07:46:31;;;;;;;4.28;1.30;;;12.40;96.70;;;;;;4985806;28;20049;-72
2023/03/28 07:48:59;;;;;;;2.67;0.90;;;12.50;96.70;;;;;;4995130;28;20065;-72
2023/03/28 07:51:30;;;;;;;2.15;0.85;;;12.60;96.70;;;;;;4990169;28;20521;-73
2023/03/28 07:53:58;;;;;;;2.33;1.10;;;12.70;96.70;;;;;;4986357;28;20050;-73
2023/03/28 07:56:27;;;;;;;1.48;0.70;;;12.70;96.70;;;;;;4999089;28;20137;-74
2023/03/28 07:59:12;;;;;;;1.38;0.68;;;12.80;96.70;;;;;;4997037;28;20100;-73
2023/03/28 08:01:44;;;;;;;2.50;0.90;;;12.90;96.70;;;;;;5004445;28;20056;-72
2023/03/28 08:04:13;;;;;;;2.05;0.70;;;12.90;96.70;;;;;;4988903;28;20076;-72
2023/03/28 08:06:54;;;;;;;2.28;0.60;;;13.00;96.70;;;;;;5001041;28;20049;-73
2023/03/28 08:09:23;;;;;;;3.58;0.70;;;13.00;96.70;;;;;;4998227;28;20049;-73
2023/03/28 08:12:14;;;;;;;2.03;0.75;;;13.10;96.70;;;;;;5005291;28;20049;-73
2023/03/28 08:14:43;;;;;;;1.75;0.43;;;13.10;96.70;;;;;;5010947;28;20136;-72
2023/03/28 08:17:11;;;;;;;2.45;0.80;;;13.20;96.70;;;;;;4982398;28;20048;-73
2023/03/28 08:19:39;;;;;;;3.03;0.70;;;13.20;96.70;;;;;;5014994;28;20037;-73
2023/03/28 08:22:11;;;;;;;2.13;0.80;;;13.30;96.70;;;;;;4988060;28;20050;-73
2023/03/28 08:24:46;;;;;;;2.28;0.60;;;13.30;96.70;;;;;;4990427;28;20544;-74
2023/03/28 08:27:19;;;;;;;1.73;0.60;;;13.40;96.70;;;;;;4997784;28;20049;-74
2023/03/28 08:29:51;;;;;;;2.42;0.70;;;13.50;96.70;;;;;;4994790;28;20558;-74
2023/03/28 08:32:19;;;;;;;1.38;0.60;;;13.50;96.70;;;;;;5001190;28;20080;-74
2023/03/28 08:34:47;;;;;;;0.85;0.30;;;13.60;95.80;;;;;;4983443;28;20086;-74
2023/03/28 08:37:23;;;;;;;1.83;0.52;;;13.60;96.70;;;;;;4980331;28;20045;-74
2023/03/28 08:39:52;;;;;;;0.70;0.30;;;13.70;95.60;;;;;;4997955;28;20052;-73
2023/03/28 08:42:38;;;;;;;4.07;0.30;;;13.80;96.20;;;;;;4993321;28;20049;-74
2023/03/28 08:45:23;;;;;;;1.98;0.30;;;13.80;94.40;;;;;;4996166;28;20184;-73
2023/03/28 08:48:01;;;;;;;0.55;0.30;;;13.90;94.90;;;;;;4994021;28;20136;-73
2023/03/28 08:50:32;;;;;;;1.65;0.47;;;14.00;92.60;;;;;;5003843;28;20057;-73
2023/03/28 08:53:04;;;;;;;1.45;0.60;;;14.10;92.40;;;;;;4997589;28;20058;-72
2023/03/28 08:55:39;;;;;;;1.35;0.50;;;14.20;92.00;;;;;;5025002;28;20049;-73
2023/03/28 08:58:13;;;;;;;1.25;0.50;;;14.20;93.80;;;;;;5016335;28;20608;-73
2023/03/28 09:00:41;;;;;;;1.38;0.50;;;14.20;92.60;;;;;;4979946;28;20141;-73
2023/03/28 09:03:12;;;;;;;1.77;0.40;;;14.20;92.10;;;;;;4999836;28;20052;-72
2023/03/28 09:05:46;;;;;;;1.35;0.52;;;14.30;92.60;;;;;;4993302;28;20146;-73
2023/03/28 09:08:30;;;;;;;1.67;0.47;;;14.50;92.10;;;;;;5003107;28;20046;-73
2023/03/28 09:11:05;;;;;;;0.60;0.40;;;14.60;91.50;;;;;;4988306;28;20053;-73
2023/03/28 09:13:47;;;;;;;1.23;0.50;;;14.60;90.20;;;;;;4988244;28;20042;-73
2023/03/28 09:16:41;;;;;;;1.67;0.40;;;14.70;90.30;;;;;;4992125;28;20050;-73
2023/03/28 09:19:29;;;;;;;3.30;0.85;;;14.70;90.80;;;;;;4984683;28;20038;-73
2023/03/28 09:22:35;;;;;;;1.63;0.70;;;14.80;90.50;;;;;;4985750;28;20057;-73
2023/03/28 09:25:22;;;;;;;4.97;1.50;;;14.90;89.10;;;;;;4979324;28;20410;-73
2023/03/28 09:27:59;;;;;;;3.92;0.95;;;14.80;89.40;;;;;;4993523;28;20038;-74
2023/03/28 09:30:31;;;;;;;1.63;0.60;;;14.90;89.70;;;;;;4985513;28;20057;-72
2023/03/28 09:33:04;;;;;;;1.80;0.60;;;15.00;89.50;;;;;;4984088;28;20050;-73
2023/03/28 09:35:33;;;;;;;1.52;0.60;;;15.10;89.40;;;;;;4983290;28;20080;-73
2023/03/28 09:38:20;;;;;;;2.22;0.70;;;15.00;89.30;;;;;;4986835;28;20053;-73
2023/03/28 09:40:54;;;;;;;1.75;0.73;;;15.10;88.80;;;;;;4991723;28;21428;-73
2023/03/28 09:43:30;;;;;;;1.38;0.50;;;15.20;87.60;;;;;;5004340;28;20485;-73
2023/03/28 09:46:35;;;;;;;1.27;0.68;;;15.30;86.40;;;;;;4974216;28;20050;-73
2023/03/28 09:49:24;;;;;;;0.98;0.45;;;15.40;88.00;;;;;;4980258;28;20062;-73
2023/03/28 09:51:57;;;;;;;1.85;0.70;;;15.40;88.00;;;;;;4982688;28;20612;-73
2023/03/28 09:54:29;;;;;;;1.30;0.60;;;15.60;88.30;;;;;;4985561;28;20779;-72
2023/03/28 09:57:02;;;;;;;2.17;0.55;;;15.70;88.20;;;;;;5002541;28;20498;-73
2023/03/28 09:59:48;;;;;;;2.42;0.55;;;15.80;87.70;;;;;;4997854;28;20050;-73
2023/03/28 10:02:26;;;;;;;1.65;0.40;;;15.80;87.40;;;;;;4991167;28;20057;-73
2023/03/28 10:04:58;;;;;;;1.67;0.50;;;15.80;87.30;;;;;;4983150;28;20555;-73
2023/03/28 10:07:44;;;;;;;1.05;0.40;;;15.90;87.30;;;;;;4996748;28;20061;-73
2023/03/28 10:10:30;;;;;;;1.30;0.47;;;15.90;86.40;;;;;;4989486;28;20061;-73
2023/03/28 10:13:10;;;;;;;1.05;0.40;;;16.10;84.90;;;;;;4995086;28;20048;-74
2023/03/28 10:15:44;;;;;;;1.20;0.57;;;16.20;84.50;;;;;;4986126;28;20042;-72
2023/03/28 10:18:20;;;;;;;2.40;0.60;;;16.30;84.50;;;;;;4984995;28;20145;-73
2023/03/28 10:21:11;;;;;;;2.17;0.50;;;16.40;83.20;;;;;;4983800;28;20049;-73
2023/03/28 10:23:46;;;;;;;1.90;0.52;;;16.30;85.10;;;;;;4983500;28;20054;-72
2023/03/28 10:26:20;;;;;;;1.42;0.43;;;16.30;84.80;;;;;;4986347;28;20050;-73
2023/03/28 10:28:53;;;;;;;1.38;0.75;;;16.40;84.70;;;;;;4988457;28;20409;-73
2023/03/28 10:31:30;;;;;;;0.52;0.30;;;16.40;83.90;;;;;;4985117;28;20149;-73
2023/03/28 10:34:24;;;;;;;1.70;0.43;;;16.40;83.90;;;;;;4975789;28;20479;-73
2023/03/28 10:37:24;;;;;;;1.13;0.40;;;16.40;84.30;;;;;;4954902;28;20050;-73
2023/03/28 10:40:24;;;;;;;2.10;0.50;;;16.50;83.40;;;;;;4989975;28;20050;-74
2023/03/28 10:43:34;;;;;;;1.45;0.38;;;16.60;82.60;;;;;;4961107;28;20097;-73
2023/03/28 10:46:23;;;;;;;1.73;0.47;;;16.80;83.50;;;;;;4960872;28;20650;-73
2023/03/28 10:49:19;;;;;;;0.80;0.32;;;16.80;82.50;;;;;;4954019;28;20157;-72
2023/03/28 10:51:57;;;;;;;5.00;0.70;;;16.70;82.60;;;;;;4930365;28;20047;-73
2023/03/28 10:54:42;;;;;;;0.77;0.40;;;16.70;82.20;;;;;;4969354;28;20063;-72
2023/03/28 10:57:26;;;;;;;0.70;0.35;;;16.70;81.90;;;;;;4926273;29;20074;-73
2023/03/28 11:00:02;;;;;;;1.25;0.50;;;17.00;81.90;;;;;;4928557;28;20303;-73
2023/03/28 11:02:47;;;;;;;1.85;0.63;;;17.30;83.10;;;;;;4960891;28;20053;-73
2023/03/28 11:05:32;;;;;;;0.73;0.50;;;17.50;82.10;;;;;;4944219;28;20492;-73
2023/03/28 11:08:14;;;;;;;1.48;0.40;;;17.60;80.40;;;;;;4929081;28;20153;-73
2023/03/28 11:10:59;;;;;;;1.05;0.50;;;17.60;80.80;;;;;;4923930;29;20062;-73
2023/03/28 11:13:43;;;;;;;1.05;0.35;;;17.60;79.60;;;;;;4945302;28;20047;-73
2023/03/28 11:16:20;;;;;;;2.58;0.43;;;17.80;79.80;;;;;;4975518;28;20731;-74
2023/03/28 11:19:20;;;;;;;1.10;0.40;;;17.80;80.60;;;;;;4981171;28;20133;-73
2023/03/28 11:21:59;;;;;;;1.02;0.40;;;17.90;80.30;;;;;;4981108;28;20050;-73
2023/03/28 11:24:33;;;;;;;1.60;0.57;;;17.90;80.30;;;;;;4983364;28;20547;-74
2023/03/28 11:27:40;;;;;;;1.25;0.40;;;17.80;79.00;;;;;;4945150;28;20046;-73
2023/03/28 11:30:26;;;;;;;2.00;0.47;;;17.90;77.80;;;;;;4981055;28;20108;-73
2023/03/28 11:33:14;;;;;;;1.02;0.60;;;17.90;77.00;;;;;;4981584;28;20054;-73
2023/03/28 11:35:48;;;;;;;1.40;0.35;;;17.90;75.90;;;;;;4966032;28;20511;-73
2023/03/28 11:38:21;;;;;;;1.98;0.50;;;18.00;78.70;;;;;;4981479;28;20609;-73
2023/03/28 11:40:56;;;;;;;1.15;0.40;;;18.20;79.20;;;;;;4980893;28;20050;-73
2023/03/28 11:43:54;;;;;;;0.75;0.38;;;18.50;78.80;;;;;;4981708;28;20047;-73
2023/03/28 11:46:28;;;;;;;1.77;0.50;;;18.70;77.80;;;;;;4980970;28;20498;-73
2023/03/28 11:49:08;;;;;;;2.25;0.60;;;18.80;77.00;;;;;;4975104;28;20050;-73
2023/03/28 11:51:44;;;;;;;1.95;0.88;;;18.90;77.40;;;;;;4986502;28;20435;-73
2023/03/28 11:54:19;;;;;;;1.05;0.50;;;19.00;77.90;;;;;;4981580;28;20091;-73
2023/03/28 11:56:53;;;;;;;0.70;0.40;;;19.00;77.40;;;;;;4981672;28;20046;-73
2023/03/28 11:59:48;;;;;;;0.70;0.30;;;19.00;76.60;;;;;;4981059;28;20128;-73
2023/03/28 12:02:34;;;;;;;2.03;0.55;;;19.00;74.40;;;;;;4982946;28;20049;-73
2023/03/28 12:05:09;;;;;;;1.02;0.50;;;18.80;73.40;;;;;;4987909;28;20072;-74
2023/03/28 12:07:47;;;;;;;4.22;0.65;;;19.00;74.10;;;;;;5004822;28;20058;-73
2023/03/28 12:10:27;;;;;;;1.17;0.52;;;19.30;75.50;;;;;;4987624;28;20046;-73
2023/03/28 12:13:05;;;;;;;0.95;0.52;;;19.40;74.00;;;;;;4981846;28;20065;-73
2023/03/28 12:15:42;;;;;;;0.82;0.50;;;19.50;74.70;;;;;;4991573;28;20060;-73
2023/03/28 12:18:21;;;;;;;0.82;0.40;;;19.60;74.30;;;;;;4995104;28;20042;-73
2023/03/28 12:20:59;;;;;;;1.15;0.50;;;19.50;74.00;;;;;;4985715;28;20397;-74
2023/03/28 12:24:00;;;;;;;1.58;0.60;;;19.40;74.00;;;;;;4986470;28;20046;-73
2023/03/28 12:26:59;;;;;;;2.15;0.52;;;19.50;73.80;;;;;;4987359;28;20524;-73
2023/03/28 12:29:37;;;;;;;3.10;1.02;;;19.70;73.70;;;;;;4984752;28;20536;-73
2023/03/28 12:32:21;;;;;;;;;;;19.90;72.70;;;;;;4986174;28;20064;-73
2023/03/28 12:35:00;;;;;;;1.02;0.50;;;20.10;73.50;;;;;;5004888;28;20407;-73
2023/03/28 12:37:55;;;;;;;0.90;0.40;;;20.10;73.30;;;;;;4992773;28;20695;-73
2023/03/28 12:40:33;;;;;;;2.45;0.60;;;20.10;73.60;;;;;;4993821;28;20058;-73
2023/03/28 12:43:03;;;;;;;1.42;0.60;;;20.20;72.50;;;;;;4985122;28;20051;-73
2023/03/28 12:45:35;;;;;;;1.27;0.50;;;20.20;70.60;;;;;;4995207;28;20056;-73
2023/03/28 12:48:08;;;;;;;1.85;0.43;;;20.10;70.10;;;;;;5004902;28;20046;-74
2023/03/28 12:50:45;;;;;;;1.02;0.52;;;20.20;70.90;;;;;;4988447;28;20057;-73
2023/03/28 12:53:16;;;;;;;0.90;0.52;;;20.10;72.10;;;;;;4984629;28;20610;-73
2023/03/28 12:55:47;;;;;;;1.33;0.63;;;19.90;69.10;;;;;;5000648;28;20050;-73
2023/03/28 12:58:33;;;;;;;2.15;0.70;;;20.00;70.20;;;;;;4979279;28;20046;-73
2023/03/28 13:01:43;;;;;;;0.50;0.40;;;20.00;69.30;;;;;;4991900;28;20140;-73
2023/03/28 13:04:20;;;;;;;1.50;0.60;;;20.20;70.80;;;;;;4986796;28;20055;-73
2023/03/28 13:07:09;;;;;;;1.00;0.57;;;20.20;69.90;;;;;;4984406;28;20193;-73
2023/03/28 13:09:57;;;;;;;1.90;0.63;;;20.30;70.20;;;;;;4992620;28;20630;-73
2023/03/28 13:12:36;;;;;;;0.95;0.52;;;20.40;69.80;;;;;;4984866;28;20587;-74
2023/03/28 13:15:26;;;;;;;1.08;0.52;;;20.40;69.70;;;;;;5000276;28;20823;-73
2023/03/28 13:18:30;;;;;;;2.42;0.65;;;20.30;69.10;;;;;;4984827;28;20145;-73
2023/03/28 13:21:06;;;;;;;1.40;0.50;;;20.30;69.50;;;;;;4939623;28;20054;-73
2023/03/28 13:23:46;;;;;;;1.17;0.50;;;20.10;68.90;;;;;;4975439;28;20050;-74
2023/03/28 13:26:14;;;;;;;1.30;0.43;;;20.00;68.50;;;;;;4985306;28;20050;-73
2023/03/28 13:28:46;;;;;;;2.22;0.70;;;19.90;67.90;;;;;;4984458;28;20057;-73
2023/03/28 13:31:22;;;;;;;1.20;0.65;;;20.00;67.70;;;;;;4985682;28;20050;-73
2023/03/28 13:33:57;;;;;;;1.48;0.50;;;20.10;69.20;;;;;;4983805;28;20068;-72
2023/03/28 13:36:31;;;;;;;0.75;0.40;;;20.30;70.10;;;;;;4991429;28;20046;-73
2023/03/28 13:39:19;;;;;;;1.58;0.50;;;20.40;67.80;;;;;;4988230;28;20050;-73